sensor_id;sensor_type;location;lat;lon;timestamp;pressure;altitude;pressure_sealevel;temperature;humidity
10992;BME280;5549;47.028;15.514;2023-10-13T00:01:26;96824.47;;;18.70;65.36
10992;BME280;5549;47.028;15.514;2023-10-13T00:03:56;96825.19;;;18.64;65.93
10992;BME280;5549;47.028;15.514;2023-10-13T00:06:23;96838.47;;;18.56;64.66
10992;BME280;5549;47.028;15.514;2023-10-13T00:08:54;96833.22;;;18.40;64.04
10992;BME280;5549;47.028;15.514;2023-10-13T00:11:22;96824.22;;;18.41;63.26
10992;BME280;5549;47.028;15.514;2023-10-13T00:13:54;96821.63;;;18.16;63.02
10992;BME280;5549;47.028;15.514;2023-10-13T00:16:22;96826.63;;;18.19;62.75
10992;BME280;5549;47.028;15.514;2023-10-13T00:18:53;96830.28;;;18.10;62.52
10992;BME280;5549;47.028;15.514;2023-10-13T00:21:25;96833.31;;;17.99;62.43
10992;BME280;5549;47.028;15.514;2023-10-13T00:24:00;96832.59;;;18.13;61.78
10992;BME280;5549;47.028;15.514;2023-10-13T00:26:34;96828.47;;;18.11;61.43
10992;BME280;5549;47.028;15.514;2023-10-13T00:29:04;96827.16;;;17.90;60.80
10992;BME280;5549;47.028;15.514;2023-10-13T00:31:44;96819.69;;;17.86;60.45
10992;BME280;5549;47.028;15.514;2023-10-13T00:34:16;96823.34;;;17.85;60.28
10992;BME280;5549;47.028;15.514;2023-10-13T00:36:51;96817.03;;;17.94;59.70
10992;BME280;5549;47.028;15.514;2023-10-13T00:39:33;96817.38;;;17.91;59.40
10992;BME280;5549;47.028;15.514;2023-10-13T00:42:05;96818.53;;;17.97;58.80
10992;BME280;5549;47.028;15.514;2023-10-13T00:44:36;96814.38;;;17.86;58.80
10992;BME280;5549;47.028;15.514;2023-10-13T00:47:10;96819.03;;;17.84;58.56
10992;BME280;5549;47.028;15.514;2023-10-13T00:49:50;96813.56;;;17.85;58.17
10992;BME280;5549;47.028;15.514;2023-10-13T00:52:19;96807.75;;;17.74;58.42
10992;BME280;5549;47.028;15.514;2023-10-13T00:54:47;96811.41;;;17.81;58.21
10992;BME280;5549;47.028;15.514;2023-10-13T00:57:16;96810.91;;;17.77;58.22
10992;BME280;5549;47.028;15.514;2023-10-13T00:59:55;96801.75;;;17.55;58.84
10992;BME280;5549;47.028;15.514;2023-10-13T01:02:26;96803.75;;;17.53;59.11
10992;BME280;5549;47.028;15.514;2023-10-13T01:05:05;96802.41;;;17.66;58.33
10992;BME280;5549;47.028;15.514;2023-10-13T01:07:36;96802.94;;;17.69;58.21
10992;BME280;5549;47.028;15.514;2023-10-13T01:10:09;96798.97;;;17.73;58.10
10992;BME280;5549;47.028;15.514;2023-10-13T01:12:39;96797.78;;;17.76;58.05
10992;BME280;5549;47.028;15.514;2023-10-13T01:15:09;96793.16;;;17.70;58.15
10992;BME280;5549;47.028;15.514;2023-10-13T01:17:39;96802.13;;;17.69;58.20
10992;BME280;5549;47.028;15.514;2023-10-13T01:20:07;96798.47;;;17.70;58.05
10992;BME280;5549;47.028;15.514;2023-10-13T01:22:39;96796.28;;;17.65;58.25
10992;BME280;5549;47.028;15.514;2023-10-13T01:25:10;96798.59;;;17.60;58.53
10992;BME280;5549;47.028;15.514;2023-10-13T01:27:41;96792.13;;;17.46;58.86
10992;BME280;5549;47.028;15.514;2023-10-13T01:30:10;96791.47;;;17.52;58.81
10992;BME280;5549;47.028;15.514;2023-10-13T01:32:49;96791.13;;;17.55;58.74
10992;BME280;5549;47.028;15.514;2023-10-13T01:35:20;96790.31;;;17.47;59.22
10992;BME280;5549;47.028;15.514;2023-10-13T01:37:54;96800.44;;;17.51;59.27
10992;BME280;5549;47.028;15.514;2023-10-13T01:40:24;96801.09;;;17.53;59.54
10992;BME280;5549;47.028;15.514;2023-10-13T01:42:57;96796.13;;;17.50;60.19
10992;BME280;5549;47.028;15.514;2023-10-13T01:45:30;96791.63;;;17.35;61.04
10992;BME280;5549;47.028;15.514;2023-10-13T01:47:58;96787.81;;;17.37;61.07
10992;BME280;5549;47.028;15.514;2023-10-13T01:50:27;96791.81;;;17.41;60.92
10992;BME280;5549;47.028;15.514;2023-10-13T01:52:58;96787.00;;;17.37;61.66
10992;BME280;5549;47.028;15.514;2023-10-13T01:55:41;96779.16;;;17.27;62.02
10992;BME280;5549;47.028;15.514;2023-10-13T01:58:12;96776.50;;;17.27;61.80
10992;BME280;5549;47.028;15.514;2023-10-13T02:00:43;96785.78;;;17.31;61.53
10992;BME280;5549;47.028;15.514;2023-10-13T02:03:12;96783.47;;;17.28;61.61
10992;BME280;5549;47.028;15.514;2023-10-13T02:05:47;96789.59;;;17.12;61.50
10992;BME280;5549;47.028;15.514;2023-10-13T02:08:16;96789.09;;;17.00;61.78
10992;BME280;5549;47.028;15.514;2023-10-13T02:10:53;96789.22;;;16.83;63.27
10992;BME280;5549;47.028;15.514;2023-10-13T02:13:25;96789.34;;;16.73;63.42
10992;BME280;5549;47.028;15.514;2023-10-13T02:15:55;96790.00;;;16.67;63.31
10992;BME280;5549;47.028;15.514;2023-10-13T02:18:26;96783.16;;;16.64;63.11
10992;BME280;5549;47.028;15.514;2023-10-13T02:20:54;96786.63;;;16.57;63.15
10992;BME280;5549;47.028;15.514;2023-10-13T02:23:23;96790.25;;;16.56;63.55
10992;BME280;5549;47.028;15.514;2023-10-13T02:25:52;96793.56;;;16.58;62.59
10992;BME280;5549;47.028;15.514;2023-10-13T02:28:27;96793.72;;;16.48;63.02
10992;BME280;5549;47.028;15.514;2023-10-13T02:30:56;96785.56;;;16.42;62.81
10992;BME280;5549;47.028;15.514;2023-10-13T02:33:24;96780.16;;;16.59;61.55
10992;BME280;5549;47.028;15.514;2023-10-13T02:35:58;96778.63;;;16.49;61.92
10992;BME280;5549;47.028;15.514;2023-10-13T02:38:27;96779.47;;;16.49;61.63
10992;BME280;5549;47.028;15.514;2023-10-13T02:41:01;96777.66;;;16.50;61.54
10992;BME280;5549;47.028;15.514;2023-10-13T02:43:36;96783.22;;;16.39;61.66
10992;BME280;5549;47.028;15.514;2023-10-13T02:46:07;96777.25;;;16.36;62.50
10992;BME280;5549;47.028;15.514;2023-10-13T02:48:35;96778.59;;;16.41;61.95
10992;BME280;5549;47.028;15.514;2023-10-13T02:51:09;96772.66;;;16.47;61.61
10992;BME280;5549;47.028;15.514;2023-10-13T02:53:45;96771.19;;;16.52;60.97
10992;BME280;5549;47.028;15.514;2023-10-13T02:56:19;96770.88;;;16.55;60.58
10992;BME280;5549;47.028;15.514;2023-10-13T02:58:48;96772.03;;;16.53;60.83
10992;BME280;5549;47.028;15.514;2023-10-13T03:01:22;96775.84;;;16.58;60.56
10992;BME280;5549;47.028;15.514;2023-10-13T03:03:56;96769.41;;;16.61;60.27
10992;BME280;5549;47.028;15.514;2023-10-13T03:06:26;96770.03;;;16.55;60.47
10992;BME280;5549;47.028;15.514;2023-10-13T03:09:09;96773.00;;;16.52;60.44
10992;BME280;5549;47.028;15.514;2023-10-13T03:11:51;96773.50;;;16.47;60.45
10992;BME280;5549;47.028;15.514;2023-10-13T03:14:23;96770.00;;;16.47;60.85
10992;BME280;5549;47.028;15.514;2023-10-13T03:16:54;96767.00;;;16.42;60.70
10992;BME280;5549;47.028;15.514;2023-10-13T03:19:27;96775.66;;;16.52;60.43
10992;BME280;5549;47.028;15.514;2023-10-13T03:22:04;96773.53;;;16.55;60.22
10992;BME280;5549;47.028;15.514;2023-10-13T03:24:44;96775.59;;;16.35;60.96
10992;BME280;5549;47.028;15.514;2023-10-13T03:27:17;96777.63;;;16.42;60.36
10992;BME280;5549;47.028;15.514;2023-10-13T03:29:50;96771.97;;;16.36;60.55
10992;BME280;5549;47.028;15.514;2023-10-13T03:32:31;96779.56;;;16.31;60.85
10992;BME280;5549;47.028;15.514;2023-10-13T03:35:02;96769.66;;;16.42;60.45
10992;BME280;5549;47.028;15.514;2023-10-13T03:37:39;96776.94;;;16.40;60.29
10992;BME280;5549;47.028;15.514;2023-10-13T03:40:08;96773.94;;;16.34;60.68
10992;BME280;5549;47.028;15.514;2023-10-13T03:43:03;96766.94;;;16.25;60.80
10992;BME280;5549;47.028;15.514;2023-10-13T03:45:37;96770.47;;;16.34;60.98
10992;BME280;5549;47.028;15.514;2023-10-13T03:48:10;96765.03;;;16.44;60.30
10992;BME280;5549;47.028;15.514;2023-10-13T03:50:49;96772.66;;;16.47;60.38
10992;BME280;5549;47.028;15.514;2023-10-13T03:53:29;96768.00;;;16.41;60.64
10992;BME280;5549;47.028;15.514;2023-10-13T03:56:02;96779.63;;;16.48;60.32
10992;BME280;5549;47.028;15.514;2023-10-13T03:58:42;96774.66;;;16.53;59.89
10992;BME280;5549;47.028;15.514;2023-10-13T04:01:12;96777.00;;;16.56;60.08
10992;BME280;5549;47.028;15.514;2023-10-13T04:03:48;96771.50;;;16.49;60.32
10992;BME280;5549;47.028;15.514;2023-10-13T04:06:32;96760.94;;;16.57;59.62
10992;BME280;5549;47.028;15.514;2023-10-13T04:09:22;96773.34;;;16.57;59.78
10992;BME280;5549;47.028;15.514;2023-10-13T04:12:08;96767.88;;;16.50;59.85
10992;BME280;5549;47.028;15.514;2023-10-13T04:14:57;96766.03;;;16.43;60.51
10992;BME280;5549;47.028;15.514;2023-10-13T04:17:44;96772.16;;;16.43;60.80
10992;BME280;5549;47.028;15.514;2023-10-13T04:20:15;96775.78;;;16.42;60.52
10992;BME280;5549;47.028;15.514;2023-10-13T04:22:59;96777.13;;;16.46;60.37
10992;BME280;5549;47.028;15.514;2023-10-13T04:25:42;96775.59;;;16.35;60.77
10992;BME280;5549;47.028;15.514;2023-10-13T04:28:29;96773.50;;;16.47;60.39
10992;BME280;5549;47.028;15.514;2023-10-13T04:31:18;96771.00;;;16.46;60.70
10992;BME280;5549;47.028;15.514;2023-10-13T04:34:12;96777.97;;;16.47;60.63
10992;BME280;5549;47.028;15.514;2023-10-13T04:36:56;96779.75;;;16.38;60.73
10992;BME280;5549;47.028;15.514;2023-10-13T04:39:44;96785.84;;;16.30;60.82
10992;BME280;5549;47.028;15.514;2023-10-13T04:42:13;96781.25;;;16.41;60.48
10992;BME280;5549;47.028;15.514;2023-10-13T04:44:56;96781.72;;;16.36;60.06
10992;BME280;5549;47.028;15.514;2023-10-13T04:47:31;96787.34;;;16.33;60.55
10992;BME280;5549;47.028;15.514;2023-10-13T04:50:14;96785.06;;;16.38;60.04
10992;BME280;5549;47.028;15.514;2023-10-13T04:52:49;96779.25;;;16.34;60.69
10992;BME280;5549;47.028;15.514;2023-10-13T04:55:27;96791.31;;;16.29;61.63
10992;BME280;5549;47.028;15.514;2023-10-13T04:58:25;96787.03;;;16.36;61.31
10992;BME280;5549;47.028;15.514;2023-10-13T05:01:22;96792.81;;;16.31;61.04
10992;BME280;5549;47.028;15.514;2023-10-13T05:04:10;96800.28;;;16.36;61.15
10992;BME280;5549;47.028;15.514;2023-10-13T05:06:58;96802.09;;;16.35;60.54
10992;BME280;5549;47.028;15.514;2023-10-13T05:09:44;96800.44;;;16.34;60.35
10992;BME280;5549;47.028;15.514;2023-10-13T05:12:31;96799.44;;;16.35;60.13
10992;BME280;5549;47.028;15.514;2023-10-13T05:15:18;96807.09;;;16.39;59.98
10992;BME280;5549;47.028;15.514;2023-10-13T05:18:03;96801.44;;;16.33;59.35
10992;BME280;5549;47.028;15.514;2023-10-13T05:20:55;96804.91;;;16.34;59.71
10992;BME280;5549;47.028;15.514;2023-10-13T05:23:40;96813.06;;;16.41;59.51
10992;BME280;5549;47.028;15.514;2023-10-13T05:26:28;96820.50;;;16.37;59.62
10992;BME280;5549;47.028;15.514;2023-10-13T05:29:15;96822.34;;;16.45;59.13
10992;BME280;5549;47.028;15.514;2023-10-13T05:32:03;96825.38;;;16.50;60.22
10992;BME280;5549;47.028;15.514;2023-10-13T05:34:51;96820.56;;;16.53;60.17
10992;BME280;5549;47.028;15.514;2023-10-13T05:37:40;96822.06;;;16.56;60.50
10992;BME280;5549;47.028;15.514;2023-10-13T05:40:28;96826.38;;;16.57;61.15
10992;BME280;5549;47.028;15.514;2023-10-13T05:43:13;96828.38;;;16.55;61.36
10992;BME280;5549;47.028;15.514;2023-10-13T05:46:03;96833.66;;;16.55;61.90
10992;BME280;5549;47.028;15.514;2023-10-13T05:49:17;96831.03;;;16.55;61.32
10992;BME280;5549;47.028;15.514;2023-10-13T05:52:08;96827.72;;;16.61;61.90
10992;BME280;5549;47.028;15.514;2023-10-13T05:54:47;96826.81;;;16.78;65.72
10992;BME280;5549;47.028;15.514;2023-10-13T05:57:41;96833.84;;;16.95;67.48
10992;BME280;5549;47.028;15.514;2023-10-13T06:00:28;96841.50;;;17.07;66.80
10992;BME280;5549;47.028;15.514;2023-10-13T06:03:15;96841.19;;;17.18;66.04
10992;BME280;5549;47.028;15.514;2023-10-13T06:06:07;96851.66;;;17.27;65.70
10992;BME280;5549;47.028;15.514;2023-10-13T06:08:52;96852.81;;;17.33;65.97
10992;BME280;5549;47.028;15.514;2023-10-13T06:11:38;96850.03;;;17.43;66.07
10992;BME280;5549;47.028;15.514;2023-10-13T06:14:25;96859.69;;;17.52;65.61
10992;BME280;5549;47.028;15.514;2023-10-13T06:17:13;96862.50;;;17.58;65.65
10992;BME280;5549;47.028;15.514;2023-10-13T06:19:58;96864.50;;;17.64;65.06
10992;BME280;5549;47.028;15.514;2023-10-13T06:22:43;96859.38;;;17.71;65.06
10992;BME280;5549;47.028;15.514;2023-10-13T06:25:34;96873.50;;;17.80;64.52
10992;BME280;5549;47.028;15.514;2023-10-13T06:28:23;96876.81;;;17.82;63.78
10992;BME280;5549;47.028;15.514;2023-10-13T06:31:12;96881.13;;;17.75;63.50
10992;BME280;5549;47.028;15.514;2023-10-13T06:33:47;96882.47;;;17.79;63.08
10992;BME280;5549;47.028;15.514;2023-10-13T06:36:15;96878.47;;;17.83;63.07
10992;BME280;5549;47.028;15.514;2023-10-13T06:38:44;96881.13;;;17.75;62.15
10992;BME280;5549;47.028;15.514;2023-10-13T06:41:18;96881.13;;;17.75;61.16
10992;BME280;5549;47.028;15.514;2023-10-13T06:43:57;96887.78;;;17.71;61.32
10992;BME280;5549;47.028;15.514;2023-10-13T06:46:31;96890.06;;;17.66;61.01
10992;BME280;5549;47.028;15.514;2023-10-13T06:49:00;96885.63;;;17.66;60.87
10992;BME280;5549;47.028;15.514;2023-10-13T06:51:30;96885.78;;;17.81;61.78
10992;BME280;5549;47.028;15.514;2023-10-13T06:54:05;96892.59;;;17.75;61.08
10992;BME280;5549;47.028;15.514;2023-10-13T06:56:37;96902.06;;;17.94;61.54
10992;BME280;5549;47.028;15.514;2023-10-13T06:59:10;96905.38;;;18.04;61.41
10992;BME280;5549;47.028;15.514;2023-10-13T07:01:42;96904.38;;;18.13;61.29
10992;BME280;5549;47.028;15.514;2023-10-13T07:04:13;96901.56;;;18.15;61.05
10992;BME280;5549;47.028;15.514;2023-10-13T07:06:44;96896.22;;;18.23;61.34
10992;BME280;5549;47.028;15.514;2023-10-13T07:09:16;96896.03;;;18.33;61.89
10992;BME280;5549;47.028;15.514;2023-10-13T07:11:59;96900.50;;;18.48;60.44
10992;BME280;5549;47.028;15.514;2023-10-13T07:14:30;96902.94;;;18.74;61.16
10992;BME280;5549;47.028;15.514;2023-10-13T07:17:01;96902.69;;;19.08;61.57
10992;BME280;5549;47.028;15.514;2023-10-13T07:19:33;96899.06;;;19.32;59.33
10992;BME280;5549;47.028;15.514;2023-10-13T07:22:04;96889.75;;;19.59;58.29
10992;BME280;5549;47.028;15.514;2023-10-13T07:24:49;96889.41;;;19.85;56.83
10992;BME280;5549;47.028;15.514;2023-10-13T07:27:17;96886.28;;;20.19;57.04
10992;BME280;5549;47.028;15.514;2023-10-13T07:29:53;96893.72;;;20.46;56.45
10992;BME280;5549;47.028;15.514;2023-10-13T07:32:39;96899.06;;;20.76;56.33
10992;BME280;5549;47.028;15.514;2023-10-13T07:35:11;96902.66;;;20.98;54.89
10992;BME280;5549;47.028;15.514;2023-10-13T07:37:39;96898.41;;;21.18;53.67
10992;BME280;5549;47.028;15.514;2023-10-13T07:40:11;96895.47;;;21.28;52.83
10992;BME280;5549;47.028;15.514;2023-10-13T07:43:07;96892.97;;;21.62;52.82
10992;BME280;5549;47.028;15.514;2023-10-13T07:45:42;96888.91;;;21.88;51.13
10992;BME280;5549;47.028;15.514;2023-10-13T07:48:11;96889.84;;;22.01;50.61
10992;BME280;5549;47.028;15.514;2023-10-13T07:50:46;96894.34;;;22.16;49.91
10992;BME280;5549;47.028;15.514;2023-10-13T07:53:17;96890.88;;;22.22;48.92
10992;BME280;5549;47.028;15.514;2023-10-13T07:55:48;96896.78;;;22.38;49.41
10992;BME280;5549;47.028;15.514;2023-10-13T07:58:21;96903.88;;;22.53;48.97
10992;BME280;5549;47.028;15.514;2023-10-13T08:00:52;96905.22;;;22.63;47.54
10992;BME280;5549;47.028;15.514;2023-10-13T08:03:35;96894.50;;;22.63;46.24
10992;BME280;5549;47.028;15.514;2023-10-13T08:06:13;96894.97;;;23.01;46.62
10992;BME280;5549;47.028;15.514;2023-10-13T08:08:54;96892.94;;;23.10;46.41
10992;BME280;5549;47.028;15.514;2023-10-13T08:11:36;96891.41;;;23.42;46.87
10992;BME280;5549;47.028;15.514;2023-10-13T08:14:06;96895.34;;;23.53;46.81
10992;BME280;5549;47.028;15.514;2023-10-13T08:16:49;96893.59;;;23.86;45.98
10992;BME280;5549;47.028;15.514;2023-10-13T08:19:27;96886.81;;;23.90;45.49
10992;BME280;5549;47.028;15.514;2023-10-13T08:22:02;96875.63;;;23.67;43.37
10992;BME280;5549;47.028;15.514;2023-10-13T08:24:51;96880.19;;;23.86;43.99
10992;BME280;5549;47.028;15.514;2023-10-13T08:27:40;96880.41;;;23.91;44.99
10992;BME280;5549;47.028;15.514;2023-10-13T08:30:33;96880.63;;;24.23;44.08
10992;BME280;5549;47.028;15.514;2023-10-13T08:33:10;96881.91;;;24.53;44.58
10992;BME280;5549;47.028;15.514;2023-10-13T08:35:44;96881.91;;;24.53;45.04
10992;BME280;5549;47.028;15.514;2023-10-13T08:38:34;96879.78;;;24.75;45.47
10992;BME280;5549;47.028;15.514;2023-10-13T08:41:17;96881.00;;;24.86;45.03
10992;BME280;5549;47.028;15.514;2023-10-13T08:44:03;96878.94;;;25.01;44.36
10992;BME280;5549;47.028;15.514;2023-10-13T08:46:32;96884.63;;;25.24;43.69
10992;BME280;5549;47.028;15.514;2023-10-13T08:49:27;96887.88;;;25.40;41.58
10992;BME280;5549;47.028;15.514;2023-10-13T08:51:58;96881.59;;;25.52;42.08
10992;BME280;5549;47.028;15.514;2023-10-13T08:54:53;96882.38;;;25.59;42.83
10992;BME280;5549;47.028;15.514;2023-10-13T08:57:53;96885.88;;;26.05;42.62
10992;BME280;5549;47.028;15.514;2023-10-13T09:00:32;96890.44;;;26.29;41.11
10992;BME280;5549;47.028;15.514;2023-10-13T09:03:18;96887.16;;;26.27;41.14
10992;BME280;5549;47.028;15.514;2023-10-13T09:06:13;96887.22;;;26.45;40.38
10992;BME280;5549;47.028;15.514;2023-10-13T09:08:41;96889.66;;;26.72;41.37
10992;BME280;5549;47.028;15.514;2023-10-13T09:11:24;96885.50;;;26.94;40.12
10992;BME280;5549;47.028;15.514;2023-10-13T09:13:53;96891.66;;;27.01;40.43
10992;BME280;5549;47.028;15.514;2023-10-13T09:16:20;96885.66;;;27.17;40.63
10992;BME280;5549;47.028;15.514;2023-10-13T09:19:12;96889.41;;;27.35;40.53
10992;BME280;5549;47.028;15.514;2023-10-13T09:21:45;96889.09;;;27.43;40.22
10992;BME280;5549;47.028;15.514;2023-10-13T09:24:25;96891.78;;;27.61;39.48
10992;BME280;5549;47.028;15.514;2023-10-13T09:26:59;96885.78;;;27.77;39.31
10992;BME280;5549;47.028;15.514;2023-10-13T09:29:28;96885.81;;;27.89;39.57
10992;BME280;5549;47.028;15.514;2023-10-13T09:32:01;96887.84;;;28.05;38.62
10992;BME280;5549;47.028;15.514;2023-10-13T09:34:29;96879.31;;;28.20;38.38
10992;BME280;5549;47.028;15.514;2023-10-13T09:37:01;96886.00;;;28.18;36.44
10992;BME280;5549;47.028;15.514;2023-10-13T09:39:29;96885.13;;;28.35;36.31
10992;BME280;5549;47.028;15.514;2023-10-13T09:42:01;96879.50;;;28.60;37.65
10992;BME280;5549;47.028;15.514;2023-10-13T09:44:29;96885.13;;;28.70;37.10
10992;BME280;5549;47.028;15.514;2023-10-13T09:47:01;96885.00;;;28.77;37.28
10992;BME280;5549;47.028;15.514;2023-10-13T09:49:39;96886.91;;;29.00;37.53
10992;BME280;5549;47.028;15.514;2023-10-13T09:52:19;96891.31;;;29.18;37.85
10992;BME280;5549;47.028;15.514;2023-10-13T09:55:02;96888.25;;;29.26;38.04
10992;BME280;5549;47.028;15.514;2023-10-13T09:57:38;96878.78;;;29.40;35.66
10992;BME280;5549;47.028;15.514;2023-10-13T10:00:15;96878.69;;;29.35;37.10
10992;BME280;5549;47.028;15.514;2023-10-13T10:03:00;96878.78;;;29.63;37.31
10992;BME280;5549;47.028;15.514;2023-10-13T10:05:43;96882.25;;;29.76;36.29
10992;BME280;5549;47.028;15.514;2023-10-13T10:08:30;96880.38;;;29.76;33.27
10992;BME280;5549;47.028;15.514;2023-10-13T10:11:14;96871.91;;;29.73;34.64
10992;BME280;5549;47.028;15.514;2023-10-13T10:13:53;96881.63;;;29.45;34.47
10992;BME280;5549;47.028;15.514;2023-10-13T10:16:39;96879.25;;;28.97;37.27
10992;BME280;5549;47.028;15.514;2023-10-13T10:19:20;96877.91;;;29.23;38.02
10992;BME280;5549;47.028;15.514;2023-10-13T10:21:49;96876.59;;;29.49;36.63
10992;BME280;5549;47.028;15.514;2023-10-13T10:24:34;96869.50;;;29.59;35.06
10992;BME280;5549;47.028;15.514;2023-10-13T10:27:02;96874.94;;;29.76;34.57
10992;BME280;5549;47.028;15.514;2023-10-13T10:29:30;96871.13;;;29.89;36.07
10992;BME280;5549;47.028;15.514;2023-10-13T10:32:00;96861.91;;;30.02;35.08
10992;BME280;5549;47.028;15.514;2023-10-13T10:34:41;96866.34;;;30.24;36.76
10992;BME280;5549;47.028;15.514;2023-10-13T10:37:09;96860.59;;;30.38;32.50
10992;BME280;5549;47.028;15.514;2023-10-13T10:39:41;96859.03;;;30.42;33.95
10992;BME280;5549;47.028;15.514;2023-10-13T10:42:15;96856.41;;;30.30;34.15
10992;BME280;5549;47.028;15.514;2023-10-13T10:44:46;96850.16;;;30.13;32.88
10992;BME280;5549;47.028;15.514;2023-10-13T10:47:15;96844.59;;;30.19;32.05
10992;BME280;5549;47.028;15.514;2023-10-13T10:49:59;96850.31;;;30.40;30.98
10992;BME280;5549;47.028;15.514;2023-10-13T10:52:34;96841.50;;;29.99;30.49
10992;BME280;5549;47.028;15.514;2023-10-13T10:55:09;96839.81;;;30.26;29.54
10992;BME280;5549;47.028;15.514;2023-10-13T10:57:42;96838.19;;;30.25;29.48
10992;BME280;5549;47.028;15.514;2023-10-13T11:00:19;96835.75;;;29.50;30.42
10992;BME280;5549;47.028;15.514;2023-10-13T11:02:54;96824.69;;;29.97;30.44
10992;BME280;5549;47.028;15.514;2023-10-13T11:05:24;96826.69;;;30.02;29.19
10992;BME280;5549;47.028;15.514;2023-10-13T11:08:01;96819.72;;;30.22;29.09
10992;BME280;5549;47.028;15.514;2023-10-13T11:10:45;96816.84;;;30.12;27.95
10992;BME280;5549;47.028;15.514;2023-10-13T11:13:15;96815.84;;;30.35;28.86
10992;BME280;5549;47.028;15.514;2023-10-13T11:15:50;96817.59;;;30.08;30.91
10992;BME280;5549;47.028;15.514;2023-10-13T11:18:30;96815.53;;;29.69;31.30
10992;BME280;5549;47.028;15.514;2023-10-13T11:21:06;96813.72;;;30.04;33.09
10992;BME280;5549;47.028;15.514;2023-10-13T11:23:37;96813.63;;;30.32;30.74
10992;BME280;5549;47.028;15.514;2023-10-13T11:26:09;96814.72;;;30.14;32.23
10992;BME280;5549;47.028;15.514;2023-10-13T11:28:38;96806.31;;;30.32;32.60
10992;BME280;5549;47.028;15.514;2023-10-13T11:31:05;96808.84;;;30.39;31.86
10992;BME280;5549;47.028;15.514;2023-10-13T11:33:44;96808.13;;;30.27;31.11
10992;BME280;5549;47.028;15.514;2023-10-13T11:36:15;96803.50;;;29.77;30.45
10992;BME280;5549;47.028;15.514;2023-10-13T11:38:49;96795.44;;;29.65;32.23
10992;BME280;5549;47.028;15.514;2023-10-13T11:41:22;96792.97;;;29.64;32.17
10992;BME280;5549;47.028;15.514;2023-10-13T11:43:51;96790.53;;;29.96;30.68
10992;BME280;5549;47.028;15.514;2023-10-13T11:46:23;96791.03;;;29.93;30.76
10992;BME280;5549;47.028;15.514;2023-10-13T11:49:09;96785.59;;;29.59;33.81
10992;BME280;5549;47.028;15.514;2023-10-13T11:51:48;96778.94;;;29.50;32.74
10992;BME280;5549;47.028;15.514;2023-10-13T11:54:20;96775.09;;;29.63;30.85
10992;BME280;5549;47.028;15.514;2023-10-13T11:56:49;96776.94;;;29.91;31.46
10992;BME280;5549;47.028;15.514;2023-10-13T11:59:19;96775.59;;;29.77;32.13
10992;BME280;5549;47.028;15.514;2023-10-13T12:01:51;96777.66;;;29.69;29.54
10992;BME280;5549;47.028;15.514;2023-10-13T12:04:39;96771.66;;;29.67;31.07
10992;BME280;5549;47.028;15.514;2023-10-13T12:07:17;96765.06;;;29.06;32.43
10992;BME280;5549;47.028;15.514;2023-10-13T12:09:51;96767.47;;;28.91;32.59
10992;BME280;5549;47.028;15.514;2023-10-13T12:12:36;96768.63;;;28.95;32.43
10992;BME280;5549;47.028;15.514;2023-10-13T12:15:09;96761.31;;;29.08;32.11
10992;BME280;5549;47.028;15.514;2023-10-13T12:17:51;96752.03;;;29.32;31.38
10992;BME280;5549;47.028;15.514;2023-10-13T12:20:21;96757.31;;;29.10;32.44
10992;BME280;5549;47.028;15.514;2023-10-13T12:23:01;96749.47;;;29.25;32.87
10992;BME280;5549;47.028;15.514;2023-10-13T12:25:44;96753.63;;;29.16;33.14
10992;BME280;5549;47.028;15.514;2023-10-13T12:28:27;96746.28;;;29.28;32.33
10992;BME280;5549;47.028;15.514;2023-10-13T12:31:03;96748.22;;;28.76;33.95
10992;BME280;5549;47.028;15.514;2023-10-13T12:33:33;96744.69;;;28.87;34.16
10992;BME280;5549;47.028;15.514;2023-10-13T12:36:07;96739.28;;;28.87;34.13
10992;BME280;5549;47.028;15.514;2023-10-13T12:38:40;96727.88;;;28.85;33.86
10992;BME280;5549;47.028;15.514;2023-10-13T12:41:38;96731.44;;;28.62;34.18
10992;BME280;5549;47.028;15.514;2023-10-13T12:44:25;96734.91;;;28.34;33.37
10992;BME280;5549;47.028;15.514;2023-10-13T12:47:09;96727.50;;;28.41;33.43
10992;BME280;5549;47.028;15.514;2023-10-13T12:49:54;96731.56;;;28.56;33.40
10992;BME280;5549;47.028;15.514;2023-10-13T12:52:40;96725.44;;;28.72;31.62
10992;BME280;5549;47.028;15.514;2023-10-13T12:55:11;96728.56;;;28.40;31.79
10992;BME280;5549;47.028;15.514;2023-10-13T12:57:43;96726.78;;;28.11;32.36
10992;BME280;5549;47.028;15.514;2023-10-13T13:00:13;96723.38;;;28.16;33.54
10992;BME280;5549;47.028;15.514;2023-10-13T13:02:47;96716.34;;;27.79;32.99
10992;BME280;5549;47.028;15.514;2023-10-13T13:05:22;96709.66;;;27.94;33.16
10992;BME280;5549;47.028;15.514;2023-10-13T13:07:55;96710.13;;;27.91;34.61
10992;BME280;5549;47.028;15.514;2023-10-13T13:10:22;96710.84;;;27.86;33.92
10992;BME280;5549;47.028;15.514;2023-10-13T13:13:08;96706.00;;;27.76;34.59
10992;BME280;5549;47.028;15.514;2023-10-13T13:15:39;96703.09;;;27.90;33.40
10992;BME280;5549;47.028;15.514;2023-10-13T13:18:07;96704.72;;;27.91;33.85
10992;BME280;5549;47.028;15.514;2023-10-13T13:20:38;96699.91;;;27.93;34.23
10992;BME280;5549;47.028;15.514;2023-10-13T13:23:09;96696.41;;;27.81;33.05
10992;BME280;5549;47.028;15.514;2023-10-13T13:25:41;96699.88;;;27.69;34.51
10992;BME280;5549;47.028;15.514;2023-10-13T13:28:09;96693.44;;;27.70;35.87
10992;BME280;5549;47.028;15.514;2023-10-13T13:30:42;96688.63;;;27.72;35.74
10992;BME280;5549;47.028;15.514;2023-10-13T13:33:10;96686.53;;;27.74;35.33
10992;BME280;5549;47.028;15.514;2023-10-13T13:35:38;96694.94;;;27.66;35.81
10992;BME280;5549;47.028;15.514;2023-10-13T13:38:09;96689.91;;;27.70;35.32
10992;BME280;5549;47.028;15.514;2023-10-13T13:40:48;96677.38;;;27.75;35.21
10992;BME280;5549;47.028;15.514;2023-10-13T13:43:22;96684.88;;;27.73;35.81
10992;BME280;5549;47.028;15.514;2023-10-13T13:46:05;96681.97;;;27.87;35.68
10992;BME280;5549;47.028;15.514;2023-10-13T13:48:36;96682.41;;;27.72;35.84
10992;BME280;5549;47.028;15.514;2023-10-13T13:51:06;96681.38;;;27.85;35.94